Preview of NWS' New Version of Forecast
This preview is not operational and should not be used for support decisions.

Terminal Aerodrome Forecast (TAF)

Issued by National Weather Service (NWS)

                            
000
FTUS42 KMFL 132343
TAFMIA
TAF
KMIA 132343Z 1400/1506 12007KT P6SM FEW025 SCT040 SCT250
     FM141700 11008KT P6SM SCT025=